createdAt,value
2019-03-29T00:01:10.874Z,10.83
2019-03-29T00:03:43.461Z,8.90
2019-03-29T00:06:16.136Z,10.73
2019-03-29T00:08:48.705Z,9.83
2019-03-29T00:11:21.185Z,10.90
2019-03-29T00:13:53.763Z,9.60
2019-03-29T00:16:26.345Z,10.70
2019-03-29T00:18:58.912Z,9.57
2019-03-29T00:21:31.494Z,11.77
2019-03-29T00:24:06.887Z,10.60
2019-03-29T00:26:38.183Z,9.23
2019-03-29T00:29:10.758Z,6.43
2019-03-29T00:31:43.234Z,7.40
2019-03-29T00:34:16.035Z,6.30
2019-03-29T00:36:50.331Z,7.23
2019-03-29T00:39:23.013Z,5.53
2019-03-29T00:41:55.592Z,6.00
2019-03-29T00:44:28.268Z,6.80
2019-03-29T00:47:00.741Z,6.80
2019-03-29T00:49:33.426Z,5.27
2019-03-29T00:52:05.896Z,5.87
2019-03-29T00:54:51.470Z,5.87
2019-03-29T00:57:30.908Z,5.43
2019-03-29T01:00:13.333Z,6.10
2019-03-29T01:02:55.931Z,6.70
2019-03-29T01:05:38.546Z,6.33
2019-03-29T01:08:21.055Z,7.43
2019-03-29T01:11:05.663Z,7.27
2019-03-29T01:13:44.538Z,7.67
2019-03-29T01:16:17.114Z,8.20
2019-03-29T01:18:49.745Z,7.77
2019-03-29T01:21:22.372Z,8.03
2019-03-29T01:23:54.500Z,6.87
2019-03-29T01:26:27.171Z,6.33
2019-03-29T01:29:01.072Z,7.90
2019-03-29T01:31:33.916Z,8.30
2019-03-29T01:34:06.481Z,7.13
2019-03-29T01:36:39.058Z,8.40
2019-03-29T01:39:11.635Z,7.80
2019-03-29T01:41:44.621Z,7.53
2019-03-29T01:44:17.201Z,7.60
2019-03-29T01:46:49.773Z,6.50
2019-03-29T01:49:22.351Z,7.50
2019-03-29T01:51:54.926Z,7.30
2019-03-29T01:54:27.402Z,7.90
2019-03-29T01:57:00.082Z,8.13
2019-03-29T01:59:32.670Z,7.67
2019-03-29T02:02:05.234Z,6.93
2019-03-29T02:04:37.814Z,6.90
2019-03-29T02:07:11.384Z,6.57
2019-03-29T02:09:44.603Z,5.47
2019-03-29T02:12:17.285Z,6.63
2019-03-29T02:14:50.068Z,4.77
2019-03-29T02:17:22.951Z,4.80
2019-03-29T02:19:55.528Z,5.73
2019-03-29T02:22:28.101Z,4.50
2019-03-29T02:25:00.779Z,5.03
2019-03-29T02:27:33.454Z,5.03
2019-03-29T02:30:08.420Z,4.77
2019-03-29T02:32:40.977Z,5.60
2019-03-29T02:35:13.443Z,5.90
2019-03-29T02:37:46.121Z,5.47
2019-03-29T02:40:18.598Z,5.93
2019-03-29T02:42:51.224Z,5.73
2019-03-29T02:45:23.760Z,5.03
2019-03-29T02:47:55.938Z,4.50
2019-03-29T02:50:28.593Z,4.87
2019-03-29T02:53:01.202Z,5.50
2019-03-29T02:55:33.747Z,4.27
2019-03-29T02:58:06.037Z,5.83
2019-03-29T03:00:39.616Z,5.73
2019-03-29T03:03:11.804Z,5.47
2019-03-29T03:05:44.365Z,4.67
2019-03-29T03:08:16.937Z,4.90
2019-03-29T03:10:49.062Z,4.00
2019-03-29T03:13:21.784Z,4.70
2019-03-29T03:16:00.709Z,4.13
2019-03-29T03:18:39.534Z,4.03
2019-03-29T03:21:18.255Z,4.17
2019-03-29T03:23:57.234Z,5.53
2019-03-29T03:26:35.901Z,5.50
2019-03-29T03:29:14.277Z,5.37
2019-03-29T03:31:52.610Z,4.90
2019-03-29T03:34:31.326Z,4.63
2019-03-29T03:37:09.605Z,4.50
2019-03-29T03:39:48.282Z,4.87
2019-03-29T03:42:30.885Z,5.23
2019-03-29T03:45:10.581Z,4.87
2019-03-29T03:47:49.121Z,4.53
2019-03-29T03:50:39.950Z,4.73
2019-03-29T03:53:19.204Z,4.83
2019-03-29T03:55:58.108Z,5.40
2019-03-29T03:58:37.438Z,5.80
2019-03-29T04:01:16.369Z,6.07
2019-03-29T04:03:54.898Z,5.77
2019-03-29T04:06:39.956Z,4.60
2019-03-29T04:09:18.579Z,4.50
2019-03-29T04:11:57.120Z,4.10
2019-03-29T04:14:35.913Z,4.97
2019-03-29T04:17:21.084Z,4.37
2019-03-29T04:19:59.704Z,4.43
2019-03-29T04:22:32.391Z,4.80
2019-03-29T04:25:07.100Z,4.37
2019-03-29T04:27:39.677Z,5.13
2019-03-29T04:30:12.260Z,4.63
2019-03-29T04:32:45.465Z,5.03
2019-03-29T04:35:17.931Z,6.13
2019-03-29T04:37:50.506Z,4.97
2019-03-29T04:40:22.977Z,6.17
2019-03-29T04:42:55.560Z,5.93
2019-03-29T04:45:28.535Z,6.17
2019-03-29T04:48:01.130Z,10.03
2019-03-29T04:50:35.039Z,11.17
2019-03-29T04:53:08.427Z,14.23
2019-03-29T04:55:40.999Z,14.20
2019-03-29T04:58:13.573Z,12.37
2019-03-29T05:00:46.053Z,13.60
2019-03-29T05:03:18.479Z,13.73
2019-03-29T05:05:50.999Z,11.87
2019-03-29T05:08:23.585Z,12.47
2019-03-29T05:10:55.720Z,14.20
2019-03-29T05:13:28.319Z,14.17
2019-03-29T05:16:00.895Z,12.20
2019-03-29T05:18:33.478Z,13.20
2019-03-29T05:21:06.047Z,9.87
2019-03-29T05:23:38.629Z,9.37
2019-03-29T05:26:11.712Z,10.40
2019-03-29T05:28:44.294Z,9.60
2019-03-29T05:31:17.072Z,11.60
2019-03-29T05:33:49.646Z,9.37
2019-03-29T05:36:22.227Z,9.40
2019-03-29T05:38:54.806Z,10.87
2019-03-29T05:41:28.403Z,11.70
2019-03-29T05:44:00.980Z,11.57
2019-03-29T05:46:33.758Z,10.27
2019-03-29T05:49:06.336Z,11.33
2019-03-29T05:51:38.907Z,10.73
2019-03-29T05:54:11.590Z,9.33
2019-03-29T05:56:44.225Z,11.10
2019-03-29T05:59:16.878Z,11.80
2019-03-29T06:01:49.422Z,11.87
2019-03-29T06:04:22.003Z,11.60
2019-03-29T06:06:54.580Z,9.43
2019-03-29T06:09:27.152Z,9.60
2019-03-29T06:11:59.628Z,9.60
2019-03-29T06:14:32.205Z,10.27
2019-03-29T06:17:04.341Z,12.20
2019-03-29T06:19:36.543Z,10.93
2019-03-29T06:22:09.218Z,10.20
2019-03-29T06:24:41.793Z,10.40
2019-03-29T06:27:14.370Z,10.47
2019-03-29T06:29:46.941Z,7.57
2019-03-29T06:32:19.563Z,7.57
2019-03-29T06:34:51.759Z,7.57
2019-03-29T06:37:25.035Z,7.23
2019-03-29T06:39:59.609Z,7.53
2019-03-29T06:42:32.289Z,12.73
2019-03-29T06:45:05.396Z,9.97
2019-03-29T06:47:38.989Z,10.30
2019-03-29T06:50:13.974Z,6.67
2019-03-29T06:52:45.769Z,5.90
2019-03-29T06:55:18.340Z,6.67
2019-03-29T06:57:50.824Z,4.20
2019-03-29T07:00:23.499Z,4.10
2019-03-29T07:02:55.973Z,4.17
2019-03-29T07:05:28.548Z,5.03
2019-03-29T07:08:01.126Z,6.47
2019-03-29T07:10:33.704Z,5.13
2019-03-29T07:13:06.047Z,4.83
2019-03-29T07:15:38.654Z,3.77
2019-03-29T07:18:11.488Z,4.50
2019-03-29T07:20:44.112Z,3.73
2019-03-29T07:23:16.689Z,4.23
2019-03-29T07:25:49.778Z,5.73
2019-03-29T07:28:22.365Z,3.57
2019-03-29T07:30:54.933Z,3.67
2019-03-29T07:33:27.923Z,3.53
2019-03-29T07:36:00.902Z,4.33
2019-03-29T07:38:33.377Z,4.07
2019-03-29T07:41:06.466Z,3.57
2019-03-29T07:43:39.041Z,3.67
2019-03-29T07:46:12.649Z,3.63
2019-03-29T07:48:46.246Z,3.53
2019-03-29T07:51:18.820Z,5.43
2019-03-29T07:53:51.412Z,4.93
2019-03-29T07:56:23.976Z,5.10
2019-03-29T07:58:56.454Z,5.30
2019-03-29T08:01:32.287Z,5.07
2019-03-29T08:04:03.144Z,3.97
2019-03-29T08:06:35.714Z,2.90
2019-03-29T08:09:21.716Z,3.70
2019-03-29T08:11:46.590Z,3.40
2019-03-29T08:14:17.544Z,3.27
2019-03-29T08:16:50.111Z,3.90
2019-03-29T08:19:22.613Z,3.57
2019-03-29T08:21:57.701Z,3.00
2019-03-29T08:24:29.281Z,3.33
2019-03-29T08:27:01.962Z,3.07
2019-03-29T08:29:35.315Z,3.67
2019-03-29T08:32:07.933Z,3.77
2019-03-29T08:34:40.516Z,3.43
2019-03-29T08:37:12.708Z,3.43
2019-03-29T08:39:45.354Z,3.90
2019-03-29T08:42:19.058Z,3.50
2019-03-29T08:44:51.529Z,4.60
2019-03-29T08:47:24.215Z,3.97
2019-03-29T08:49:58.317Z,4.00
2019-03-29T08:52:30.900Z,5.60
2019-03-29T08:55:03.583Z,3.60
2019-03-29T08:57:36.152Z,3.60
2019-03-29T09:00:10.063Z,4.13
2019-03-29T09:02:42.742Z,5.33
2019-03-29T09:05:15.324Z,4.10
2019-03-29T09:07:48.202Z,2.83
2019-03-29T09:10:27.359Z,3.80
2019-03-29T09:12:59.756Z,3.90
2019-03-29T09:15:32.282Z,4.30
2019-03-29T09:18:05.066Z,4.73
2019-03-29T09:20:37.540Z,4.50
2019-03-29T09:23:10.547Z,4.20
2019-03-29T09:25:43.413Z,4.60
2019-03-29T09:28:15.984Z,4.80
2019-03-29T09:30:48.568Z,4.17
2019-03-29T09:33:21.138Z,4.27
2019-03-29T09:35:53.820Z,5.20
2019-03-29T09:38:26.501Z,5.20
2019-03-29T09:40:59.436Z,4.13
2019-03-29T09:43:32.678Z,4.67
2019-03-29T09:46:05.250Z,4.73
2019-03-29T09:48:37.833Z,5.37
2019-03-29T09:51:10.914Z,6.47
2019-03-29T09:53:43.492Z,4.80
2019-03-29T09:56:15.953Z,5.20
2019-03-29T09:58:48.544Z,6.03
2019-03-29T10:01:21.247Z,5.33
2019-03-29T10:03:53.814Z,7.10
2019-03-29T10:06:26.487Z,5.83
2019-03-29T10:08:58.678Z,6.03
2019-03-29T10:11:31.224Z,6.97
2019-03-29T10:14:04.003Z,7.37
2019-03-29T10:16:37.092Z,6.30
2019-03-29T10:19:09.976Z,8.00
2019-03-29T10:21:44.093Z,9.47
2019-03-29T10:24:16.669Z,7.33
2019-03-29T10:26:49.262Z,8.07
2019-03-29T10:29:21.920Z,6.97
2019-03-29T10:31:54.500Z,7.60
2019-03-29T10:34:27.075Z,7.87
2019-03-29T10:36:59.652Z,7.50
2019-03-29T10:39:35.419Z,7.20
2019-03-29T10:42:06.750Z,7.73
2019-03-29T10:44:39.328Z,6.77
2019-03-29T10:47:11.910Z,7.20
2019-03-29T10:49:44.480Z,6.53
2019-03-29T10:52:17.363Z,6.80
2019-03-29T10:54:50.196Z,6.90
2019-03-29T10:57:23.233Z,6.67
2019-03-29T10:59:55.914Z,5.17
2019-03-29T11:02:28.388Z,6.17
2019-03-29T11:05:00.911Z,7.33
2019-03-29T11:07:34.621Z,5.80
2019-03-29T11:10:08.681Z,6.90
2019-03-29T11:12:41.325Z,4.33
2019-03-29T11:15:13.934Z,7.37
2019-03-29T11:17:46.407Z,7.47
2019-03-29T11:20:18.992Z,7.80
2019-03-29T11:22:51.563Z,6.20
2019-03-29T11:25:23.894Z,5.93
2019-03-29T11:27:56.411Z,15.83
2019-03-29T11:30:41.492Z,7.23
2019-03-29T11:33:02.919Z,6.77
2019-03-29T11:35:35.671Z,6.17
2019-03-29T11:38:09.339Z,6.77
2019-03-29T11:40:41.954Z,7.03
2019-03-29T11:43:25.927Z,7.47
2019-03-29T11:45:48.752Z,8.30
2019-03-29T11:48:21.324Z,10.10
2019-03-29T11:50:53.723Z,7.97
2019-03-29T11:53:27.147Z,8.90
2019-03-29T11:55:59.766Z,7.80
2019-03-29T11:58:33.583Z,7.07
2019-03-29T12:01:06.164Z,8.53
2019-03-29T12:03:38.725Z,8.03
2019-03-29T12:06:11.303Z,7.53
2019-03-29T12:08:43.781Z,7.57
2019-03-29T12:11:16.356Z,7.53
2019-03-29T12:13:48.928Z,6.90
2019-03-29T12:16:21.927Z,6.83
2019-03-29T12:18:54.488Z,7.00
2019-03-29T12:21:27.073Z,7.53
2019-03-29T12:23:59.752Z,6.57
2019-03-29T12:26:32.633Z,7.90
2019-03-29T12:29:05.265Z,7.60
2019-03-29T12:31:37.998Z,7.80
2019-03-29T12:34:10.567Z,7.30
2019-03-29T12:36:45.938Z,7.47
2019-03-29T12:39:17.768Z,7.17
2019-03-29T12:41:50.351Z,6.43
2019-03-29T12:44:22.922Z,6.53
2019-03-29T12:46:55.509Z,6.00
2019-03-29T12:49:28.182Z,6.97
2019-03-29T12:52:00.755Z,7.30
2019-03-29T12:54:33.439Z,5.77
2019-03-29T12:57:06.935Z,4.30
2019-03-29T12:59:39.489Z,6.67
2019-03-29T13:02:12.803Z,5.77
2019-03-29T13:04:47.040Z,5.17
2019-03-29T13:07:19.595Z,7.23
2019-03-29T13:09:52.374Z,5.37
2019-03-29T13:12:25.060Z,5.67
2019-03-29T13:14:57.192Z,6.07
2019-03-29T13:17:29.798Z,6.63
2019-03-29T13:20:02.273Z,6.30
2019-03-29T13:22:35.023Z,6.17
2019-03-29T13:25:08.750Z,5.80
2019-03-29T13:27:41.359Z,4.57
2019-03-29T13:30:17.106Z,5.97
2019-03-29T13:32:49.486Z,6.57
2019-03-29T13:35:21.954Z,5.33
2019-03-29T13:37:54.536Z,6.30
2019-03-29T13:40:27.011Z,8.67
2019-03-29T13:43:01.022Z,8.60
2019-03-29T13:45:33.599Z,5.73
2019-03-29T13:48:06.277Z,5.93
2019-03-29T13:50:38.746Z,6.03
2019-03-29T13:53:11.322Z,5.30
2019-03-29T13:55:43.905Z,5.50
2019-03-29T13:58:16.489Z,6.77
2019-03-29T14:00:49.162Z,5.93
2019-03-29T14:03:21.738Z,5.77
2019-03-29T14:05:53.863Z,6.10
2019-03-29T14:08:28.529Z,5.83
2019-03-29T14:11:01.107Z,5.50
2019-03-29T14:13:33.682Z,3.63
2019-03-29T14:16:06.258Z,4.47
2019-03-29T14:18:38.836Z,4.67
2019-03-29T14:21:11.311Z,4.43
2019-03-29T14:23:43.889Z,4.57
2019-03-29T14:26:16.331Z,7.50
2019-03-29T14:28:49.347Z,7.40
2019-03-29T14:31:21.920Z,4.40
2019-03-29T14:33:56.041Z,5.20
2019-03-29T14:36:28.168Z,4.40
2019-03-29T14:39:00.780Z,6.67
2019-03-29T14:41:34.943Z,5.00
2019-03-29T14:44:07.575Z,4.30
2019-03-29T14:46:40.150Z,5.23
2019-03-29T14:49:12.726Z,3.80
2019-03-29T14:51:45.297Z,4.40
2019-03-29T14:54:19.102Z,4.63
2019-03-29T14:56:51.683Z,4.60
2019-03-29T14:59:23.870Z,4.80
2019-03-29T15:01:56.420Z,5.33
2019-03-29T15:04:29.006Z,5.13
2019-03-29T15:07:01.582Z,5.70
2019-03-29T15:09:34.261Z,4.77
2019-03-29T15:12:07.196Z,6.00
2019-03-29T15:14:39.927Z,4.40
2019-03-29T15:17:12.060Z,31.87
2019-03-29T15:19:44.726Z,15.63
2019-03-29T15:22:17.246Z,26.30
2019-03-29T15:24:49.832Z,13.97
2019-03-29T15:27:22.406Z,15.47
2019-03-29T15:29:54.978Z,21.27
2019-03-29T15:32:27.114Z,28.53
2019-03-29T15:34:59.721Z,5.60
2019-03-29T15:37:32.194Z,14.63
2019-03-29T15:40:05.793Z,15.90
2019-03-29T15:42:38.370Z,13.00
2019-03-29T15:45:20.249Z,10.30
2019-03-29T15:47:45.851Z,6.93
2019-03-29T15:50:18.455Z,6.30
2019-03-29T15:52:51.033Z,5.10
2019-03-29T15:55:23.605Z,6.33
2019-03-29T15:57:56.186Z,7.90
2019-03-29T16:00:28.767Z,10.53
2019-03-29T16:03:01.340Z,4.00
2019-03-29T16:05:33.920Z,5.40
2019-03-29T16:08:06.492Z,4.63
2019-03-29T16:10:41.160Z,4.57
2019-03-29T16:13:13.183Z,4.90
2019-03-29T16:15:45.376Z,5.50
2019-03-29T16:18:17.924Z,5.67
2019-03-29T16:20:50.498Z,10.03
2019-03-29T16:23:22.977Z,9.70
2019-03-29T16:25:55.553Z,7.90
2019-03-29T16:28:28.130Z,7.53
2019-03-29T16:31:00.716Z,8.37
2019-03-29T16:33:32.836Z,7.03
2019-03-29T16:36:05.552Z,5.10
2019-03-29T16:38:38.214Z,6.00
2019-03-29T16:41:10.811Z,5.30
2019-03-29T16:43:43.386Z,4.67
2019-03-29T16:46:15.967Z,5.30
2019-03-29T16:48:48.538Z,5.00
2019-03-29T16:51:21.111Z,5.10
2019-03-29T16:53:53.693Z,5.80
2019-03-29T16:56:26.269Z,5.03
2019-03-29T16:58:59.455Z,5.93
2019-03-29T17:01:32.038Z,5.37
2019-03-29T17:04:04.613Z,5.33
2019-03-29T17:06:37.189Z,6.40
2019-03-29T17:09:10.539Z,5.40
2019-03-29T17:11:43.881Z,5.20
2019-03-29T17:14:16.354Z,6.77
2019-03-29T17:16:52.807Z,6.97
2019-03-29T17:19:24.578Z,6.43
2019-03-29T17:21:57.153Z,7.90
2019-03-29T17:24:29.732Z,9.97
2019-03-29T17:27:02.436Z,12.77
2019-03-29T17:29:34.990Z,9.83
2019-03-29T17:32:07.561Z,7.67
2019-03-29T17:34:41.166Z,7.40
2019-03-29T17:37:14.254Z,12.13
2019-03-29T17:39:47.164Z,9.03
2019-03-29T17:42:19.600Z,8.33
2019-03-29T17:44:51.732Z,9.73
2019-03-29T17:47:23.905Z,11.73
2019-03-29T17:49:56.423Z,11.77
2019-03-29T17:52:28.998Z,14.27
2019-03-29T17:55:01.484Z,7.30
2019-03-29T17:57:34.213Z,9.03
2019-03-29T18:00:10.006Z,6.60
2019-03-29T18:02:42.586Z,8.33
2019-03-29T18:05:15.157Z,8.33
2019-03-29T18:07:49.163Z,10.63
2019-03-29T18:10:21.948Z,9.93
2019-03-29T18:12:54.581Z,8.13
2019-03-29T18:15:27.103Z,13.97
2019-03-29T18:17:59.782Z,10.47
2019-03-29T18:20:32.563Z,9.70
2019-03-29T18:23:05.139Z,6.70
2019-03-29T18:25:37.817Z,6.47
2019-03-29T18:28:10.497Z,6.40
2019-03-29T18:30:45.020Z,7.73
2019-03-29T18:33:17.602Z,8.17
2019-03-29T18:35:50.182Z,8.27
2019-03-29T18:38:22.856Z,10.47
2019-03-29T18:40:54.991Z,9.47
2019-03-29T18:43:27.648Z,9.50
2019-03-29T18:46:00.173Z,7.43
2019-03-29T18:48:32.750Z,10.40
2019-03-29T18:51:06.658Z,12.97
2019-03-29T18:53:38.966Z,11.93
2019-03-29T18:56:11.501Z,6.67
2019-03-29T18:58:45.105Z,9.23
2019-03-29T19:01:17.683Z,8.73
2019-03-29T19:03:50.260Z,8.60
2019-03-29T19:06:22.834Z,5.80
2019-03-29T19:08:55.415Z,8.60
2019-03-29T19:11:27.986Z,11.27
2019-03-29T19:14:00.559Z,9.33
2019-03-29T19:16:33.239Z,9.70
2019-03-29T19:19:10.170Z,9.47
2019-03-29T19:21:39.815Z,8.77
2019-03-29T19:24:12.407Z,8.77
2019-03-29T19:26:44.983Z,9.07
2019-03-29T19:29:17.171Z,7.00
2019-03-29T19:31:49.777Z,8.47
2019-03-29T19:34:23.024Z,8.77
2019-03-29T19:36:55.596Z,8.77
2019-03-29T19:39:28.168Z,11.43
2019-03-29T19:42:00.749Z,10.17
2019-03-29T19:44:34.556Z,9.10
2019-03-29T19:47:13.322Z,8.83
2019-03-29T19:49:40.938Z,8.07
2019-03-29T19:52:13.411Z,9.30
2019-03-29T19:54:45.983Z,8.73
2019-03-29T19:57:18.621Z,9.10
2019-03-29T19:59:50.771Z,8.63
2019-03-29T20:02:23.309Z,8.03
2019-03-29T20:04:55.885Z,9.97
2019-03-29T20:07:28.462Z,9.10
2019-03-29T20:10:01.041Z,8.63
2019-03-29T20:12:33.513Z,8.97
2019-03-29T20:15:08.724Z,7.90
2019-03-29T20:17:41.467Z,7.17
2019-03-29T20:20:20.013Z,8.70
2019-03-29T20:22:54.604Z,9.40
2019-03-29T20:25:27.687Z,9.87
2019-03-29T20:28:00.787Z,9.77
2019-03-29T20:30:33.434Z,9.97
2019-03-29T20:33:06.112Z,9.80
2019-03-29T20:35:38.407Z,9.33
2019-03-29T20:38:10.952Z,10.13
2019-03-29T20:40:43.530Z,9.70
2019-03-29T20:43:16.004Z,9.43
2019-03-29T20:45:48.193Z,13.93
2019-03-29T20:48:20.747Z,20.77
2019-03-29T20:50:53.325Z,12.53
2019-03-29T20:53:26.238Z,8.90
2019-03-29T20:55:58.887Z,11.27
2019-03-29T20:58:31.365Z,13.13
2019-03-29T21:01:03.936Z,13.13
2019-03-29T21:03:36.516Z,10.77
2019-03-29T21:06:09.092Z,10.60
2019-03-29T21:08:41.663Z,10.00
2019-03-29T21:11:14.347Z,11.17
2019-03-29T21:13:46.918Z,11.80
2019-03-29T21:16:20.841Z,11.10
2019-03-29T21:18:53.407Z,11.40
2019-03-29T21:21:26.082Z,14.50
2019-03-29T21:23:58.562Z,13.47
2019-03-29T21:26:31.140Z,13.53
2019-03-29T21:29:03.715Z,13.47
2019-03-29T21:31:36.343Z,12.73
2019-03-29T21:34:09.374Z,14.80
2019-03-29T21:36:41.956Z,16.07
2019-03-29T21:39:14.946Z,16.03
2019-03-29T21:41:47.523Z,12.23
2019-03-29T21:44:20.760Z,13.97
2019-03-29T21:46:53.287Z,13.87
2019-03-29T21:49:25.865Z,13.73
2019-03-29T21:51:58.441Z,13.63
2019-03-29T21:54:30.573Z,15.00
2019-03-29T21:57:02.745Z,13.77
2019-03-29T21:59:35.247Z,14.77
2019-03-29T22:02:07.923Z,15.80
2019-03-29T22:04:40.500Z,17.80
2019-03-29T22:07:13.086Z,17.10
2019-03-29T22:09:45.662Z,16.60
2019-03-29T22:12:18.234Z,16.20
2019-03-29T22:14:50.365Z,15.07
2019-03-29T22:17:22.977Z,15.90
2019-03-29T22:19:55.605Z,15.40
2019-03-29T22:22:28.289Z,15.17
2019-03-29T22:25:00.810Z,14.83
2019-03-29T22:27:33.386Z,14.90
2019-03-29T22:30:12.005Z,15.13
2019-03-29T22:32:44.497Z,14.57
2019-03-29T22:35:17.056Z,14.70
2019-03-29T22:37:49.634Z,14.90
2019-03-29T22:40:22.214Z,14.27
2019-03-29T22:42:54.418Z,15.40
2019-03-29T22:45:26.983Z,15.27
2019-03-29T22:47:59.529Z,15.27
2019-03-29T22:50:32.004Z,12.77
2019-03-29T22:53:04.583Z,14.43
2019-03-29T22:55:37.058Z,14.57
2019-03-29T22:58:09.634Z,14.87
2019-03-29T23:00:49.480Z,14.43
2019-03-29T23:03:22.773Z,15.20
2019-03-29T23:05:55.350Z,16.53
2019-03-29T23:08:27.918Z,17.87
2019-03-29T23:11:00.398Z,15.13
2019-03-29T23:13:34.514Z,15.40
2019-03-29T23:16:07.090Z,13.90
2019-03-29T23:18:40.384Z,12.50
2019-03-29T23:21:12.961Z,13.10
2019-03-29T23:23:45.374Z,13.60
2019-03-29T23:26:17.909Z,17.47
2019-03-29T23:28:50.489Z,21.27
2019-03-29T23:31:22.617Z,17.73
2019-03-29T23:33:55.229Z,15.80
2019-03-29T23:36:27.586Z,15.77
2019-03-29T23:39:00.179Z,15.37
2019-03-29T23:41:32.857Z,14.67
2019-03-29T23:44:05.435Z,17.50
2019-03-29T23:46:37.911Z,18.30
2019-03-29T23:49:20.920Z,17.80
2019-03-29T23:51:44.601Z,16.40
2019-03-29T23:54:16.794Z,15.10
2019-03-29T23:56:49.447Z,16.20
2019-03-29T23:59:22.122Z,43.17
